EN 437:June/July 2007                                          
        Decimal Decimal Bottom  Sampling Chlorophyll a Phaeo-pigments Salinity Sigma theta Pressure Temperature Conductivity Transmittance PAR Oxygen Fluor NO3+NO2 Si(OH)4 NH4 PO4
Station Year Month Day Time Latitude Longitude Depth(m) Depth(m) (ug/L) (ug/L) Sal00 Sigma-00 (db) T090 C0S/m Xmiss Par Sbeox1ML/L Upoly0 (uM) (uM) (uM) (uM)
                                             
1 2007 6 21 1414 41.16 -70.45 36 30 0.88 0.49 31.9582 24.4828 29.7120 10.5693 3.5613 80.9596 6.1600 5.84802 0.5183 0.57 8.24 1.52 0.98
1 2007 6 21 1414 41.16 -70.45 36 20 2.21 0.01 31.8028 24.3133 20.0190 10.8503 3.5699 80.9421 41.6270 6.13285 1.1297 0.59 6.52 1.56 1.32
1 2007 6 21 1414 41.16 -70.45 36 10 1.48 1.00 31.7720 24.1814 10.1210 11.4616 3.6201 79.7296 345.1000 6.53151 0.8592 0.11 4.60 1.38 0.43
1 2007 6 21 1414 41.16 -70.45 36 1 0.68 0.75 31.4520 23.1917 1.8720 15.2177 3.9194 80.6033 2107.5000 5.3771 0.3222 0.91 4.59 2.05 0.68
2 2007 6 21 1600 40.99 -70.46 44 30 0.88 1.08 31.8912 24.4373 30.0420 10.5299 3.5511 84.4425 1.8892 6.29155 0.9369 0.63 3.65 1.25 0.83
2 2007 6 21 1600 40.99 -70.46 44 20 2.65 0.81 31.7813 24.3100 20.0080 10.7726 3.5609 79.2555 10.1070 6.39812 2.6594 0.72 3.64 0.49 0.68
2 2007 6 21 1600 40.99 -70.46 44 10 2.71 0.00 31.5921 23.9806 10.1140 11.7994 3.6313 78.7321 25.4950 6.57056 1.5546 0.24 3.94 0.53 0.64
2 2007 6 21 1600 40.99 -70.46 44 1 1.43 0.14 31.5788 23.3671 2.6840 14.8539 3.9009 80.7592 102.0600 6.08634 0.4718 0.41 4.43 0.01 0.63
3 2007 6 21 1720 40.82 -70.46 54 40 0.69 0.29 32.6334 25.3959 39.8270 8.1389 3.4140 87.8011 1.0642 6.3237 0.1932 1.50 3.92 1.08 0.75
3 2007 6 21 1720 40.82 -70.46 54 30 0.47 0.32 32.4159 25.1919 30.0040 8.3655 3.4128 85.7206 3.8984 6.34643 0.1186 1.54 4.40 1.62 0.61
3 2007 6 21 1720 40.82 -70.46 54 20 0.58 0.07 32.3228 25.0670 19.8520 8.7109 3.4337 85.3924 18.5590 6.34457 0.2221 1.53 5.65 2.57 0.51
3 2007 6 21 1720 40.82 -70.46 54 10 Nan Nan 32.2834 24.9396 10.2670 9.3328 3.4840 78.7879 119.0800 6.94886 1.9582 nan nan nan nan
3 2007 6 21 1720 40.82 -70.46 54 1 2.64 0.00 31.8966 24.0365 1.8000 12.7590 3.7477 79.8333 1144.8000 6.61159 0.6433 0.68 4.02 1.57 0.47
4 2007 6 21 1900 40.65 -70.46 58 50     32.7542 25.4691 49.9520 8.2870 3.4388 83.5228 0.0000 6.20234 0.2213 1.53 6.48 1.68 1.03
4 2007 6 21 1900 40.65 -70.46 58 40 0.63 0.34 32.7452 25.3926 40.4350 8.7474 3.4782 87.1896 0.0355 6.30155 0.1934 1.50 4.82 1.00 0.96
4 2007 6 21 1900 40.65 -70.46 58 30 1.38 0.40 32.6578 25.3047 29.9940 8.8729 3.4805 86.2539 0.1804 6.48117 1.0682 1.09 3.30 0.82 0.87
4 2007 6 21 1900 40.65 -70.46 58 20 3.44 0.25 32.5403 25.1223 19.8510 9.4472 3.5194 82.5333 1.1965 7.09401 3.1560 0.69 1.74 1.01 0.70
4 2007 6 21 1900 40.65 -70.46 58 10 4.07 0.01 32.1884 24.3557 10.0630 12.2712 3.7350 80.7641 7.7484 7.01632 1.3626 0.75 2.55 0.77 0.56
4 2007 6 21 1900 40.65 -70.46 58 1 5.00 0.01 32.2000 24.3427 1.7380 12.3872 3.7463 79.7247 68.1770 6.94117 1.5431 0.61 2.06 0.13 0.50
5 2007 6 22 2038 40.48 -70.47 71 50     32.7823 25.7000 50.0000 6.7949 3.3108 88.7274 0.0000 6.22284 0.0832 2.86 6.04 1.20 0.85
5 2007 6 22 2038 40.48 -70.47 71 40 0.59 0.44 32.7330 25.4189 39.7100 8.5106 3.4561 87.8965 0.0000 6.36143 0.3630 1.70 3.97 2.24 0.76
5 2007 6 22 2038 40.48 -70.47 71 30 1.48 0.38 32.7199 25.3725 30.0190 8.7476 3.4754 86.5758 0.0000 6.45783 0.7268 1.00 2.52 2.16 1.31
5 2007 6 22 2038 40.48 -70.47 71 20 1.29 1.96 32.7243 25.2940 19.8060 9.2722 3.5218 80.7486 0.0000 7.29296 2.9495 0.49 1.97 1.05 0.77
5 2007 6 22 2038 40.48 -70.47 71 10 3.20 0.32 32.3807 24.4006 9.6410 12.8159 3.8042 77.5438 0.0104 7.0981 1.7936 0.11 0.72 0.46 0.35
5 2007 6 22 2038 40.48 -70.47 71 1 4.92 0.01 32.3871 24.3946 2.0730 12.8709 3.8096 77.5250 0.7967 7.02138 1.7120 0.11 0.61 0.29 0.57
6 2007 6 22 2152 40.31 -70.47 94 84     33.4720 26.2522 84.6550 6.7316 3.3695 86.3622 0.0000 5.88131 0.0032 7.31 8.19 0.70 1.31
6 2007 6 22 2152 40.31 -70.47 94 50     33.3346 25.9058 49.7950 8.4097 3.5046 88.3407 0.0000 6.01246 0.3841 3.07 4.90 0.46 1.49
6 2007 6 22 2152 40.31 -70.47 94 40 1.21 0.33 34.9681 25.6062 40.2120 16.5120 4.4394 87.2864 0.0000 5.44118 0.9595 1.50 3.19 0.40 1.21
6 2007 6 22 2152 40.31 -70.47 94 30 2.09 0.00 35.4168 25.6081 30.0070 17.9375 4.6336 87.1480 0.0000 5.3073 0.6781 0.01 0.67 0.21 0.66
6 2007 6 22 2152 40.31 -70.47 94 20 0.87 0.24 35.7530 25.5800 19.8610 19.0695 4.7884 86.5282 0.0000 5.14638 0.5800 0.11 0.01 0.11 0.56
6 2007 6 22 2152 40.31 -70.47 94 10 1.09 0.37 33.0458 24.9608 10.0740 12.5835 3.8530 81.6467 0.0179 6.46581 0.7940 0.11 0.49 0.35 0.55
6 2007 6 22 2152 40.31 -70.47 94 1 1.58 0.50 32.6389 24.4967 1.5020 13.3413 3.8791 79.5722 1.6484 6.59103 1.1693 0.11 0.66 0.25 0.61
7 2007 6 22 2312 40.15 -70.47 120 110     34.4992 26.5824 110.0440 9.8853 3.7543 88.9908 0.0000 5.11342 -0.0388 8.75 6.54 0.62 1.21
7 2007 6 22 2312 40.15 -70.47 120 100     34.4536 26.5539 99.7730 9.8419 3.7453 89.6370 0.0000 5.16333 -0.0281 9.04 6.60 0.31 1.23
7 2007 6 22 2312 40.15 -70.47 120 50     35.1000 26.1836 49.9180 14.3877 4.2447 89.5228 0.0000 4.95189 0.2528 4.36 2.36 0.36 1.01
7 2007 6 22 2312 40.15 -70.47 120 40 0.58 0.74 35.1808 25.9174 39.8230 15.8719 4.3997 88.1845 0.0000 5.20416 0.8579 2.15 1.69 0.31 0.98
7 2007 6 22 2312 40.15 -70.47 120 30 0.71 0.84 35.5597 25.7516 29.7210 17.7995 4.6362 87.1814 0.0000 5.12734 1.0321 0.42 0.76 0.16 0.62
7 2007 6 22 2312 40.15 -70.47 120 20 1.46 0.00 35.6155 25.6906 19.9390 18.2167 4.6847 87.1226 0.0000 5.18719 0.6174 0.11 0.04 0.33 0.41
7 2007 6 22 2312 40.15 -70.47 120 10 0.64 0.25 34.2300 25.4665 9.6350 14.5937 4.1685 85.7626 0.0368 6.0408 0.5263 0.11 0.44 0.53 0.36
7 2007 6 22 2312 40.15 -70.47 120 1 1.11 0.00 33.1115 24.6847 2.6470 14.2083 4.0100 80.5478 0.6310 6.22873 0.7773 0.11 0.16 1.04 0.54
8 2007 6 22 0350 40.14 -69.52 88 78     33.1110 26.0247 77.9690 6.2893 3.2977 88.8109 0.0000 6.09705 0.1071 4.64 7.32 1.60 1.05
8 2007 6 22 0350 40.14 -69.52 88 50     33.7559 25.8228 50.3250 10.9159 3.7738 87.9348 0.0000 5.91197 0.6959 1.05 2.06 0.69 1.01
8 2007 6 22 0350 40.14 -69.52 88 40 2.69 0.00 33.1239 25.7141 39.4080 8.5840 3.4998 87.8896 0.0000 6.15009 0.7273 2.91 3.70 0.58 1.45
8 2007 6 22 0350 40.14 -69.52 88 30 4.71 0.01 32.9034 25.3765 29.8180 9.6305 3.5716 86.8654 0.0000 6.3091 1.0697 0.62 1.56 0.77 1.03
8 2007 6 22 0350 40.14 -69.52 88 20 2.64 0.00 32.8330 25.2369 20.1350 10.1413 3.6100 82.0010 0.0000 6.82979 1.4563 0.14 0.47 0.68 0.85
8 2007 6 22 0350 40.14 -69.52 88 10 3.68 0.00 32.5823 24.5167 10.1080 13.0206 3.8442 78.5462 0.0137 6.92103 1.6185 0.35 0.11 0.17 0.85
8 2007 6 22 0350 40.14 -69.52 88 1 3.11 0.27 32.5939 24.5188 1.6920 13.0542 3.8481 78.5165 1.2898 6.82795 1.7479 0.24 0.11 0.37 1.03
9 2007 6 22 0505 40.27 -69.58 78 68     33.1426 25.9845 68.3410 6.7911 3.3441 89.0294 0.0000 6.0516 0.1269 4.02 5.98 1.30 1.45
9 2007 6 22 0505 40.27 -69.58 78 50     33.9576 25.7819 49.4930 11.9938 3.8945 88.1218 0.0000 5.83883 0.8684 1.55 2.76 0.96 0.92
9 2007 6 22 0505 40.27 -69.58 78 40 3.35 0.00 33.0708 25.6545 39.6030 8.7019 3.5052 86.9559 0.0000 6.12861 1.0262 1.25 2.08 0.95 0.83
9 2007 6 22 0505 40.27 -69.58 78 30 6.59 0.00 32.9420 25.4686 29.9290 9.2459 3.5410 83.6734 0.0785 6.23754 2.9945 1.04 1.84 0.81 0.90
9 2007 6 22 0505 40.27 -69.58 78 20 2.57 0.00 32.7604 25.1916 20.0820 10.0738 3.5968 82.1367 0.4509 6.93533 1.2432 0.31 0.59 0.01 0.58
9 2007 6 22 0505 40.27 -69.58 78 10 nan nan 32.5654 24.5667 9.5730 12.6970 3.8129 78.7113 2.7669 6.74151 1.3376 0.00 0.11 0.05 0.58
9 2007 6 22 0505 40.27 -69.58 78 1 2.28 0.00 32.5659 24.5609 2.2420 12.7279 3.8155 78.6942 14.3410 6.6843 1.3559 0.11 0.11 0.17 0.87
10 2007 6 22 0612 40.38 -69.63 68 58     32.9919 25.5446 58.2240 9.0147 3.5264 88.4050 0.0091 5.9323 0.3717 0.71 3.10 1.13 1.19
10 2007 6 22 0612 40.38 -69.63 68 50     32.9892 25.5304 49.8130 9.0908 3.5326 88.0095 0.0674 5.9699 0.6046 0.72 2.75 1.01 1.27
10 2007 6 22 0612 40.38 -69.63 68 40 5.75 0.00 32.9659 25.4422 39.9480 9.5278 3.5689 86.7743 0.3372 6.16472 1.3237 0.38 1.87 0.12 0.81
10 2007 6 22 0612 40.38 -69.63 68 30 4.37 0.01 32.9568 25.4160 30.3550 9.6443 3.5781 87.2018 1.3742 6.35616 0.5520 0.11 0.87 0.25 0.75
10 2007 6 22 0612 40.38 -69.63 68 20 3.15 0.00 32.8228 25.2653 19.9020 9.9237 3.5895 82.2328 6.5457 6.67815 1.6585 0.04 0.14 0.35 0.62
10 2007 6 22 0612 40.38 -69.63 68 10 2.09 0.00 32.5772 24.5602 10.2250 12.7776 3.8215 79.9740 23.0570 6.70139 0.9351 0.14 0.11 0.01 0.41
10 2007 6 22 0612 40.38 -69.63 68 1 2.09 0.00 32.6065 24.5528 1.9840 12.9310 3.8382 79.8627 110.3000 6.55022 0.9171 0.21 0.11 0.02 0.63
11 2007 6 22 0738 40.55 -69.71 65 55     32.9438 25.4631 54.9140 9.2917 3.5463 87.6205 0.1439 5.9823 0.4863 0.49 2.67 0.01 1.02
11 2007 6 22 0738 40.55 -69.71 65 50     32.9488 25.4567 49.8680 9.3560 3.5523 87.6426 0.3023 5.99665 0.4124 0.13 2.46 0.01 1.09
11 2007 6 22 0738 40.55 -69.71 65 40 3.08 0.01 32.9324 25.4443 40.0340 9.3524 3.5500 87.4498 1.0728 5.9919 0.4272 0.94 2.73 0.15 1.33
11 2007 6 22 0738 40.55 -69.71 65 30 2.60 0.00 32.9190 25.4369 30.0800 9.3319 3.5464 87.5156 3.6551 6.03539 0.3133 0.36 2.52 0.59 0.98
11 2007 6 22 0738 40.55 -69.71 65 20 2.82 0.00 32.8441 25.2863 19.9400 9.8971 3.5892 82.7509 16.0460 6.67036 1.7457 0.54 1.73 0.01 0.86
11 2007 6 22 0738 40.55 -69.71 65 10 2.55 0.82 32.6254 24.7773 10.1700 11.8288 3.7405 78.3967 88.7340 7.30159 1.4089 0.44 0.11 0.38 0.74
11 2007 6 22 0738 40.55 -69.71 65 1 4.07 0.00 32.3654 24.5269 2.0900 12.0895 3.7368 81.1759 893.8000 6.97435 0.7942 0.15 0.22 0.01 0.58
12 2007 6 22 0902 40.71 -69.79 48 40 1.05 0.59 32.4257 25.1099 40.2110 8.9589 3.4662 85.9247 2.0575 6.37334 0.2441 1.28 3.15 0.31 1.00
12 2007 6 22 0902 40.71 -69.79 48 30 0.85 0.65 32.3706 25.0569 29.9700 9.0213 3.4659 86.1852 7.4858 6.39519 0.2450 1.40 2.98 0.97 0.75
12 2007 6 22 0902 40.71 -69.79 48 20 1.26 0.05 32.3040 25.0101 19.9800 8.9860 3.4560 86.3744 27.0980 6.45561 0.3302 1.53 2.52 0.51 0.77
12 2007 6 22 0902 40.71 -69.79 48 10 1.43 0.43 32.0143 24.6224 10.2080 9.9951 3.5157 84.7881 186.3100 6.47995 0.6440 1.38 2.59 0.61 0.69
12 2007 6 22 0902 40.71 -69.79 48 1 2.65 0.00 31.8118 24.3236 2.4220 10.8297 3.5683 81.9221 1287.9000 6.35915 0.5326 0.98 3.15 0.31 0.60
13 2007 6 22 1150 40.72 -69.24 56 40 1.23 0.56 32.5445 25.1780 39.5080 9.1184 3.4916 86.3460 7.2533 6.4332 0.2556 1.32 1.72 0.42 0.82
13 2007 6 22 1150 40.72 -69.24 56 30 0.78 0.77 32.5029 25.1544 29.9770 9.0599 3.4821 86.5500 26.7330 6.45488 0.2648 1.23 1.58 0.52 0.86
13 2007 6 22 1150 40.72 -69.24 56 20 1.52 0.00 32.3088 25.0133 19.4800 8.9899 3.4568 86.6448 112.0100 6.49484 0.4202 1.91 2.13 0.39 0.90
13 2007 6 22 1150 40.72 -69.24 56 10 3.11 0.01 32.1584 24.8364 10.1690 9.3670 3.4748 86.3047 417.4400 6.47293 0.1702 2.23 2.60 0.32 0.61
13 2007 6 22 1150 40.72 -69.24 56 1 2.28 0.01 32.1517 24.8120 2.3610 9.4868 3.4843 86.2939 1192.3000 6.437 0.1241 2.06 2.51 0.34 0.71
14 2007 6 22 1315 40.60 -69.11 76 50     32.9336 25.4476 49.4070 9.3382 3.5492 84.3810 0.5352 6.15515 2.5170 0.47 1.71 1.09 0.64
14 2007 6 22 1315 40.60 -69.11 76 40 7.38 0.01 32.9346 25.4160 39.7590 9.5387 3.5668 84.1199 2.7585 6.21071 2.2954 0.51 1.30 0.03 0.63
14 2007 6 22 1315 40.60 -69.11 76 30 6.35 0.01 32.9379 25.3680 29.7500 9.8470 3.5943 84.3873 14.7590 6.40891 1.9075 0.10 0.76 0.00 0.71
14 2007 6 22 1315 40.60 -69.11 76 20 7.25 0.00 32.9388 25.3459 20.0190 9.9834 3.6063 83.3056 75.0400 6.54351 1.5198 0.23 0.27 0.01 0.91
14 2007 6 22 1315 40.60 -69.11 76 10 5.31 0.00 32.8669 25.1443 10.0580 10.8340 3.6753 82.4600 439.2300 6.80256 0.7366 0.11 0.11 0.34 0.74
14 2007 6 22 1315 40.60 -69.11 76 1 2.91 0.00 32.6786 24.8115 2.7200 11.8665 3.7491 84.1439 1512.7000 6.85794 0.2084 0.30 0.11 0.02 0.41
15 2007 6 22 1415 40.50 -69.03 76 50     32.9680 25.7281 49.7910 7.6575 3.4034 87.6744 0.4472 6.13961 0.4937 2.02 4.61 0.42 1.10
15 2007 6 22 1415 40.50 -69.03 76 40 2.47 0.18 32.9481 25.6476 39.8670 8.1070 3.4408 86.0729 1.6498 6.21499 1.5600 1.26 2.78 1.56 1.22
15 2007 6 22 1415 40.50 -69.03 76 30 6.04 1.85 32.8905 25.5574 30.3010 8.4093 3.4617 81.9132 9.0002 6.48304 3.9601 0.96 1.77 0.37 1.05
15 2007 6 22 1415 40.50 -69.03 76 20 7.21 0.00 32.9426 25.3155 19.5970 10.1825 3.6245 81.8627 88.2470 6.58175 2.5200 0.21 0.73 0.65 0.78
15 2007 6 22 1415 40.50 -69.03 76 10 4.02 0.00 32.6025 24.9961 9.9420 10.5003 3.6188 80.7093 418.0400 7.14454 0.6764 0.03 0.00 0.45 0.40
15 2007 6 22 1415 40.50 -69.03 76 1 2.48 0.04 32.6826 24.7603 2.4020 12.1576 3.7759 79.2746 1754.2000 6.96291 0.2728 0.01 0.11 0.44 0.44
16 2007 6 22 1545 40.35 -68.93 88 79     33.0257 25.8728 78.1880 6.9395 3.3469 88.7723 0.0722 6.17964 0.1176 3.48 5.88 2.52 0.95
16 2007 6 22 1545 40.35 -68.93 88 50     33.0012 25.8568 49.9190 6.9123 3.3410 89.0242 1.5465 6.21763 0.1006 3.49 5.77 1.46 0.98
16 2007 6 22 1545 40.35 -68.93 88 40 0.60 0.29 32.9576 25.7786 39.8470 7.2361 3.3650 88.5863 4.3848 6.26242 0.3026 2.95 5.02 1.78 1.10
16 2007 6 22 1545 40.35 -68.93 88 30 0.87 0.09 32.8429 25.6941 29.9310 7.1928 3.3502 88.7980 13.0730 6.45971 0.4291 2.49 3.85 1.32 1.23
16 2007 6 22 1545 40.35 -68.93 88 20 2.55 0.00 32.6991 25.4908 20.0480 7.8381 3.3929 86.0518 43.6400 6.65777 1.2622 1.76 2.74 1.28 0.87
16 2007 6 22 1545 40.35 -68.93 88 10 3.51 0.00 32.7286 24.9006 9.7480 11.5946 3.7299 76.4918 311.1200 7.14215 1.3617 0.58 0.07 0.37 0.65
16 2007 6 22 1545 40.35 -68.93 88 1 3.20 0.00 32.7224 24.7679 2.4980 12.2807 3.7912 77.5193 1478.9000 6.96906 0.4670 0.11 0.11 1.51 0.52
17 2007 6 22 1657 40.21 -68.82 119 110     34.3117 26.6085 109.6010 8.8262 3.6379 89.2785 0.0111 4.99745 -0.0579 10.45 9.01 0.23 0.90
17 2007 6 22 1657 40.21 -68.82 119 100     33.9162 26.4236 99.4850 8.0034 3.5249 89.2976 0.0435 5.40389 -0.0368 10.76 9.06 0.51 1.13
17 2007 6 22 1657 40.21 -68.82 119 50     34.5314 25.9594 50.2320 13.3562 4.0837 88.4457 3.5231 5.60155 0.6914 2.03 2.33 1.23 0.63
17 2007 6 22 1657 40.21 -68.82 119 40 1.25 0.15 35.1192 25.8632 39.8930 15.9016 4.3958 87.5073 10.1650 5.34055 1.1421 1.11 1.56 0.24 0.92
17 2007 6 22 1657 40.21 -68.82 119 30 1.58 0.08 35.4662 25.5803 30.1380 18.2022 4.6662 87.0097 26.4470 5.23641 0.6381 0.11 1.05 0.70 0.01
17 2007 6 22 1657 40.21 -68.82 119 20 0.82 0.03 35.1255 25.3552 19.7480 18.0559 4.6110 86.3836 70.7240 5.34566 0.3396 0.11 0.32 0.25 0.18
17 2007 6 22 1657 40.21 -68.82 119 10 1.34 0.05 32.6585 24.6454 10.0960 12.6630 3.8196 78.7668 235.3100 6.70322 0.9993 0.11 0.28 0.34 0.01
17 2007 6 22 1657 40.21 -68.82 119 1 1.46 0.17 32.6039 24.6123 2.4100 12.6140 3.8091 78.8982 1064.9000 6.66667 0.4589 0.12 0.62 0.57 0.05
18 2007 6 23 2000 40.35 -68.22 145 135     34.2983 26.7103 135.2340 8.0970 3.5708 89.7073 0.0000 4.94537 -0.0736 12.41 17.51 0.52 0.90
18 2007 6 23 2000 40.35 -68.22 145 100     33.6231 26.3382 99.6560 6.9797 3.4059 89.7611 0.0000 5.70888 -0.0344 10.50 18.52 0.61 0.78
18 2007 6 23 2000 40.35 -68.22 145 50     33.2755 25.9957 50.0100 7.4743 3.4158 89.2157 0.0000 6.2434 0.1797 5.83 6.46 1.37 0.71
18 2007 6 23 2000 40.35 -68.22 145 40 2.40 0.06 33.1031 25.6876 40.0030 8.6511 3.5038 85.3409 0.0000 6.43462 1.8334 3.18 3.34 0.72 0.61
18 2007 6 23 2000 40.35 -68.22 145 30 4.03 0.45 32.7997 25.5252 30.1370 8.1461 3.4299 80.3709 0.0000 6.91498 3.7773 1.13 8.77 0.48 0.31
18 2007 6 23 2000 40.35 -68.22 145 20 5.41 1.74 32.7362 25.3426 19.7270 9.0229 3.5008 76.9594 0.0005 7.0707 5.1634 0.11 0.67 0.12 0.30
18 2007 6 23 2000 40.35 -68.22 145 10 2.57 0.00 32.4405 24.7120 10.0950 11.4000 3.6830 78.8725 0.1284 6.83434 1.7083 0.11 0.13 0.01 0.07
18 2007 6 23 2000 40.35 -68.22 145 1 1.36 0.51 32.5558 24.6615 2.4180 12.1595 3.7629 78.9197 1.1854 6.74943 1.7399 0.12 0.13 0.09 0.08
19 2007 6 23 2130 40.51 -68.33 96 86     33.3889 26.1901 86.4810 6.7059 3.3597 89.7849 0.0000 6.02079 0.0067 8.04 18.85 0.38 0.77
19 2007 6 23 2130 40.51 -68.33 96 50     33.1156 25.9413 49.6090 6.9544 3.3551 88.8726 0.0000 6.34474 0.3963 6.01 19.20 1.41 0.84
19 2007 6 23 2130 40.51 -68.33 96 40 1.02 0.29 33.0615 25.8699 39.5170 7.1661 3.3684 88.3453 0.0000 6.40798 0.6505 5.12 5.40 1.19 0.67
19 2007 6 23 2130 40.51 -68.33 96 30 1.48 0.32 32.9332 25.7381 30.1250 7.3892 3.3757 87.2735 0.0000 6.50306 1.1971 4.31 6.98 1.28 0.47
19 2007 6 23 2130 40.51 -68.33 96 20 2.33 0.15 32.6637 25.4182 19.9510 8.1474 3.4167 82.1922 0.0000 6.6797 2.8164 1.35 3.98 0.96 0.55
19 2007 6 23 2130 40.51 -68.33 96 10 1.55 0.23 32.3324 24.4630 9.7030 12.2945 3.7521 79.4962 0.0218 6.62736 1.6014 0.11 3.08 0.28 0.35
19 2007 6 23 2130 40.51 -68.33 96 1 1.38 0.16 32.3466 24.4693 2.0310 12.3184 3.7555 79.5629 1.0437 6.58075 1.5329 0.11 2.88 0.20 0.36
20 2007 6 23 2250 40.66 -68.44 67 57     33.0994 25.5006 57.1980 9.8107 3.6081 83.6513 0.0000 6.49613 1.6087 0.11 0.13 0.39 0.50
20 2007 6 23 2250 40.66 -68.44 67 50     33.0991 25.4872 49.8330 9.8895 3.6149 83.2921 0.0000 6.53179 1.8464 0.12 0.16 0.14 0.87
20 2007 6 23 2250 40.66 -68.44 67 40 4.48 2.93 33.0996 25.4855 39.9020 9.9009 3.6155 82.2807 0.0000 6.52842 1.7633 0.11 0.67 0.38 0.42
20 2007 6 23 2250 40.66 -68.44 67 30 5.19 1.61 33.0985 25.4754 29.8960 9.9557 3.6199 83.5879 0.0000 6.60282 1.7575 0.11 0.13 0.53 0.39
20 2007 6 23 2250 40.66 -68.44 67 20 3.23 1.77 33.0948 25.4504 20.0350 10.0861 3.6309 83.7256 0.0000 6.69608 1.2928 0.11 0.13 0.49 0.52
20 2007 6 23 2250 40.66 -68.44 67 10 3.25 1.93 33.0758 25.3358 9.8600 10.6684 3.6812 83.1191 0.0148 6.76164 1.2989 0.11 0.13 0.73 0.48
20 2007 6 23 2250 40.66 -68.44 67 1 2.82 0.70 33.0773 25.3247 2.8560 10.7384 3.6874 82.7816 0.5685 6.72104 1.2817 0.11 0.13 0.12 0.38
21 2007 6 23 0020 40.80 -68.55 54 40 5.22 0.00 33.0484 25.2524 39.8350 11.0252 3.7121 81.0844 0.0000 6.32582 2.6585 0.11 0.13 0.08 0.39
21 2007 6 23 0020 40.80 -68.55 54 30 4.08 4.24 33.0458 25.2387 30.0460 11.0899 3.7173 81.1253 0.0000 6.3189 2.4626 0.11 1.88 0.49 0.29
21 2007 6 23 0020 40.80 -68.55 54 20 5.45 0.00 33.0462 25.2408 19.6360 11.0782 3.7158 81.0309 0.0000 6.31579 2.4465 0.12 0.29 0.24 0.62
21 2007 6 23 0020 40.80 -68.55 54 10 3.22 4.81 33.0432 25.2249 9.7950 11.1536 3.7220 81.0385 0.0112 6.29708 2.5039 0.12 0.13 0.20 1.10
21 2007 6 23 0020 40.80 -68.55 54 1 4.44 2.90 33.0436 25.2246 2.3250 11.1556 3.7219 80.8876 0.8053 6.31761 2.5405 0.12 1.84 0.62 0.85
22 2007 6 23 0130 40.95 -68.66 50 40 3.86 4.34 32.9620 25.1632 39.8890 11.1485 3.7146 82.1011 0.0000 6.31689 2.0323 0.12 12.38 0.74 1.00
22 2007 6 23 0130 40.95 -68.66 50 30 4.68 3.55 32.9627 25.1622 29.7510 11.1556 3.7149 82.0826 0.0000 6.32756 2.2556 0.12 10.28 0.37 1.04
22 2007 6 23 0130 40.95 -68.66 50 20 4.20 5.41 32.9627 25.1621 19.7600 11.1558 3.7145 82.4323 0.0000 6.31101 2.0925 0.12 2.75 0.38 0.91
22 2007 6 23 0130 40.95 -68.66 50 10 3.47 1.98 32.9625 25.1618 9.8010 11.1547 3.7139 82.6324 0.0119 6.31046 1.9904 0.12 1.71 0.20 0.75
22 2007 6 23 0130 40.95 -68.66 50 1 4.51 0.37 32.9627 25.1617 2.0360